sensor_id;sensor_type;location;lat;lon;timestamp;P1;durP1;ratioP1;P2;durP2;ratioP2
211;SDS011;16228;48.800;9.002;2022-08-03T00:00:12;4.17;;;3.80;;
211;SDS011;16228;48.800;9.002;2022-08-03T00:02:41;4.23;;;3.83;;
211;SDS011;16228;48.800;9.002;2022-08-03T00:05:08;4.07;;;3.77;;
211;SDS011;16228;48.800;9.002;2022-08-03T00:07:35;4.10;;;3.70;;
211;SDS011;16228;48.800;9.002;2022-08-03T00:10:03;4.10;;;3.80;;
211;SDS011;16228;48.800;9.002;2022-08-03T00:12:30;5.77;;;4.10;;
211;SDS011;16228;48.800;9.002;2022-08-03T00:14:57;4.90;;;3.97;;
211;SDS011;16228;48.800;9.002;2022-08-03T00:17:24;4.47;;;4.13;;
211;SDS011;16228;48.800;9.002;2022-08-03T00:19:53;4.70;;;4.20;;
211;SDS011;16228;48.800;9.002;2022-08-03T00:22:20;4.40;;;3.90;;
211;SDS011;16228;48.800;9.002;2022-08-03T00:24:47;4.37;;;3.97;;
211;SDS011;16228;48.800;9.002;2022-08-03T00:27:14;4.83;;;4.43;;
211;SDS011;16228;48.800;9.002;2022-08-03T00:29:40;4.43;;;4.03;;
211;SDS011;16228;48.800;9.002;2022-08-03T00:32:07;5.63;;;4.30;;
211;SDS011;16228;48.800;9.002;2022-08-03T00:34:34;4.80;;;4.17;;
211;SDS011;16228;48.800;9.002;2022-08-03T00:37:03;4.67;;;4.17;;
211;SDS011;16228;48.800;9.002;2022-08-03T00:39:29;4.57;;;4.13;;
211;SDS011;16228;48.800;9.002;2022-08-03T00:41:56;4.27;;;3.87;;
211;SDS011;16228;48.800;9.002;2022-08-03T00:44:27;6.37;;;4.30;;
211;SDS011;16228;48.800;9.002;2022-08-03T00:46:54;4.50;;;4.10;;
211;SDS011;16228;48.800;9.002;2022-08-03T00:49:21;4.93;;;4.20;;
211;SDS011;16228;48.800;9.002;2022-08-03T00:51:48;5.10;;;4.70;;
211;SDS011;16228;48.800;9.002;2022-08-03T00:54:17;4.23;;;3.83;;
211;SDS011;16228;48.800;9.002;2022-08-03T00:56:45;4.77;;;4.33;;
211;SDS011;16228;48.800;9.002;2022-08-03T00:59:13;5.07;;;4.57;;
211;SDS011;16228;48.800;9.002;2022-08-03T01:01:41;4.67;;;4.27;;
211;SDS011;16228;48.800;9.002;2022-08-03T01:04:08;5.33;;;4.83;;
211;SDS011;16228;48.800;9.002;2022-08-03T01:06:37;4.60;;;4.30;;
211;SDS011;16228;48.800;9.002;2022-08-03T01:09:10;4.60;;;4.20;;
211;SDS011;16228;48.800;9.002;2022-08-03T01:11:47;6.40;;;4.53;;
211;SDS011;16228;48.800;9.002;2022-08-03T01:14:20;5.20;;;4.07;;
211;SDS011;16228;48.800;9.002;2022-08-03T01:16:54;5.53;;;5.03;;
211;SDS011;16228;48.800;9.002;2022-08-03T01:19:30;4.93;;;4.40;;
211;SDS011;16228;48.800;9.002;2022-08-03T01:22:24;4.40;;;4.00;;
211;SDS011;16228;48.800;9.002;2022-08-03T01:25:19;4.50;;;4.00;;
211;SDS011;16228;48.800;9.002;2022-08-03T01:27:56;5.30;;;4.70;;
211;SDS011;16228;48.800;9.002;2022-08-03T01:30:36;4.23;;;3.93;;
211;SDS011;16228;48.800;9.002;2022-08-03T01:33:08;4.60;;;4.20;;
211;SDS011;16228;48.800;9.002;2022-08-03T01:35:42;4.47;;;4.07;;
211;SDS011;16228;48.800;9.002;2022-08-03T01:38:12;5.17;;;4.27;;
211;SDS011;16228;48.800;9.002;2022-08-03T01:40:43;4.90;;;4.50;;
211;SDS011;16228;48.800;9.002;2022-08-03T01:43:15;4.80;;;4.40;;
211;SDS011;16228;48.800;9.002;2022-08-03T01:45:46;4.93;;;4.30;;
211;SDS011;16228;48.800;9.002;2022-08-03T01:48:14;4.73;;;4.30;;
211;SDS011;16228;48.800;9.002;2022-08-03T01:50:42;5.23;;;4.90;;
211;SDS011;16228;48.800;9.002;2022-08-03T01:53:12;4.60;;;4.20;;
211;SDS011;16228;48.800;9.002;2022-08-03T01:55:40;4.50;;;4.10;;
211;SDS011;16228;48.800;9.002;2022-08-03T01:58:09;5.07;;;4.67;;
211;SDS011;16228;48.800;9.002;2022-08-03T02:00:38;5.10;;;4.50;;
211;SDS011;16228;48.800;9.002;2022-08-03T02:03:08;5.57;;;5.07;;
211;SDS011;16228;48.800;9.002;2022-08-03T02:05:37;4.67;;;4.20;;
211;SDS011;16228;48.800;9.002;2022-08-03T02:08:05;4.77;;;4.33;;
211;SDS011;16228;48.800;9.002;2022-08-03T02:10:35;4.67;;;4.07;;
211;SDS011;16228;48.800;9.002;2022-08-03T02:13:05;5.40;;;5.00;;
211;SDS011;16228;48.800;9.002;2022-08-03T02:15:34;5.30;;;4.90;;
211;SDS011;16228;48.800;9.002;2022-08-03T02:18:03;5.23;;;4.27;;
211;SDS011;16228;48.800;9.002;2022-08-03T02:20:34;5.33;;;4.83;;
211;SDS011;16228;48.800;9.002;2022-08-03T02:23:03;4.80;;;4.40;;
211;SDS011;16228;48.800;9.002;2022-08-03T02:25:31;5.27;;;4.87;;
211;SDS011;16228;48.800;9.002;2022-08-03T02:28:00;4.87;;;4.47;;
211;SDS011;16228;48.800;9.002;2022-08-03T02:30:32;5.90;;;5.17;;
211;SDS011;16228;48.800;9.002;2022-08-03T02:33:02;4.30;;;4.00;;
211;SDS011;16228;48.800;9.002;2022-08-03T02:35:31;4.87;;;4.47;;
211;SDS011;16228;48.800;9.002;2022-08-03T02:38:01;5.00;;;4.50;;
211;SDS011;16228;48.800;9.002;2022-08-03T02:40:30;5.03;;;4.53;;
211;SDS011;16228;48.800;9.002;2022-08-03T02:42:59;5.97;;;5.40;;
211;SDS011;16228;48.800;9.002;2022-08-03T02:45:30;5.87;;;4.53;;
211;SDS011;16228;48.800;9.002;2022-08-03T02:48:00;5.07;;;4.57;;
211;SDS011;16228;48.800;9.002;2022-08-03T02:50:30;4.87;;;4.37;;
211;SDS011;16228;48.800;9.002;2022-08-03T02:53:00;5.53;;;5.13;;
211;SDS011;16228;48.800;9.002;2022-08-03T02:55:29;5.07;;;4.33;;
211;SDS011;16228;48.800;9.002;2022-08-03T02:57:59;5.77;;;4.87;;
211;SDS011;16228;48.800;9.002;2022-08-03T03:00:28;6.53;;;4.73;;
211;SDS011;16228;48.800;9.002;2022-08-03T03:02:57;5.00;;;4.60;;
211;SDS011;16228;48.800;9.002;2022-08-03T03:05:25;5.57;;;5.07;;
211;SDS011;16228;48.800;9.002;2022-08-03T03:07:53;5.33;;;4.93;;
211;SDS011;16228;48.800;9.002;2022-08-03T03:10:22;4.70;;;4.30;;
211;SDS011;16228;48.800;9.002;2022-08-03T03:12:51;4.60;;;4.30;;
211;SDS011;16228;48.800;9.002;2022-08-03T03:15:21;4.90;;;4.50;;
211;SDS011;16228;48.800;9.002;2022-08-03T03:17:49;5.67;;;5.17;;
211;SDS011;16228;48.800;9.002;2022-08-03T03:20:18;6.40;;;5.10;;
211;SDS011;16228;48.800;9.002;2022-08-03T03:22:46;4.93;;;4.50;;
211;SDS011;16228;48.800;9.002;2022-08-03T03:25:15;4.80;;;4.40;;
211;SDS011;16228;48.800;9.002;2022-08-03T03:27:44;4.87;;;4.30;;
211;SDS011;16228;48.800;9.002;2022-08-03T03:30:12;5.53;;;4.93;;
211;SDS011;16228;48.800;9.002;2022-08-03T03:32:40;5.50;;;5.00;;
211;SDS011;16228;48.800;9.002;2022-08-03T03:35:07;6.30;;;4.80;;
211;SDS011;16228;48.800;9.002;2022-08-03T03:37:35;5.73;;;5.13;;
211;SDS011;16228;48.800;9.002;2022-08-03T03:40:02;5.10;;;4.70;;
211;SDS011;16228;48.800;9.002;2022-08-03T03:42:32;5.67;;;5.00;;
211;SDS011;16228;48.800;9.002;2022-08-03T03:45:03;5.87;;;5.27;;
211;SDS011;16228;48.800;9.002;2022-08-03T03:47:30;8.10;;;5.10;;
211;SDS011;16228;48.800;9.002;2022-08-03T03:50:00;6.00;;;5.43;;
211;SDS011;16228;48.800;9.002;2022-08-03T03:52:27;5.77;;;5.17;;
211;SDS011;16228;48.800;9.002;2022-08-03T03:54:54;5.30;;;4.80;;
211;SDS011;16228;48.800;9.002;2022-08-03T03:57:21;5.60;;;5.20;;
211;SDS011;16228;48.800;9.002;2022-08-03T03:59:48;5.63;;;5.13;;
211;SDS011;16228;48.800;9.002;2022-08-03T04:02:16;5.17;;;4.67;;
211;SDS011;16228;48.800;9.002;2022-08-03T04:04:43;6.07;;;5.43;;
211;SDS011;16228;48.800;9.002;2022-08-03T04:07:28;5.27;;;4.80;;
211;SDS011;16228;48.800;9.002;2022-08-03T04:10:22;5.40;;;5.00;;
211;SDS011;16228;48.800;9.002;2022-08-03T04:13:10;5.83;;;5.23;;
211;SDS011;16228;48.800;9.002;2022-08-03T04:15:40;6.20;;;5.60;;
211;SDS011;16228;48.800;9.002;2022-08-03T04:18:10;5.70;;;5.20;;
211;SDS011;16228;48.800;9.002;2022-08-03T04:20:40;6.33;;;5.83;;
211;SDS011;16228;48.800;9.002;2022-08-03T04:23:12;5.93;;;5.33;;
211;SDS011;16228;48.800;9.002;2022-08-03T04:25:41;5.13;;;4.63;;
211;SDS011;16228;48.800;9.002;2022-08-03T04:28:09;6.20;;;5.60;;
211;SDS011;16228;48.800;9.002;2022-08-03T04:30:36;5.33;;;4.70;;
211;SDS011;16228;48.800;9.002;2022-08-03T04:33:13;5.43;;;4.93;;
211;SDS011;16228;48.800;9.002;2022-08-03T04:35:43;6.33;;;4.57;;
211;SDS011;16228;48.800;9.002;2022-08-03T04:38:13;5.37;;;4.87;;
211;SDS011;16228;48.800;9.002;2022-08-03T04:40:42;5.73;;;5.20;;
211;SDS011;16228;48.800;9.002;2022-08-03T04:43:11;5.37;;;4.97;;
211;SDS011;16228;48.800;9.002;2022-08-03T04:45:39;5.47;;;4.97;;
211;SDS011;16228;48.800;9.002;2022-08-03T04:48:07;6.90;;;4.67;;
211;SDS011;16228;48.800;9.002;2022-08-03T04:50:36;4.73;;;4.20;;
211;SDS011;16228;48.800;9.002;2022-08-03T04:53:04;5.43;;;4.77;;
211;SDS011;16228;48.800;9.002;2022-08-03T04:55:32;5.53;;;4.77;;
211;SDS011;16228;48.800;9.002;2022-08-03T04:58:01;4.90;;;4.40;;
211;SDS011;16228;48.800;9.002;2022-08-03T05:00:30;5.43;;;4.93;;
211;SDS011;16228;48.800;9.002;2022-08-03T05:02:57;5.67;;;4.90;;
211;SDS011;16228;48.800;9.002;2022-08-03T05:05:24;5.57;;;5.00;;
211;SDS011;16228;48.800;9.002;2022-08-03T05:07:53;5.77;;;5.20;;
211;SDS011;16228;48.800;9.002;2022-08-03T05:10:20;4.87;;;4.47;;
211;SDS011;16228;48.800;9.002;2022-08-03T05:12:47;5.77;;;4.83;;
211;SDS011;16228;48.800;9.002;2022-08-03T05:15:15;4.90;;;4.40;;
211;SDS011;16228;48.800;9.002;2022-08-03T05:17:42;5.03;;;4.13;;
211;SDS011;16228;48.800;9.002;2022-08-03T05:20:10;4.30;;;3.90;;
211;SDS011;16228;48.800;9.002;2022-08-03T05:22:37;4.97;;;4.40;;
211;SDS011;16228;48.800;9.002;2022-08-03T05:25:06;4.37;;;4.07;;
211;SDS011;16228;48.800;9.002;2022-08-03T05:27:33;4.20;;;3.80;;
211;SDS011;16228;48.800;9.002;2022-08-03T05:30:00;4.37;;;3.97;;
211;SDS011;16228;48.800;9.002;2022-08-03T05:32:27;5.60;;;4.37;;
211;SDS011;16228;48.800;9.002;2022-08-03T05:34:54;8.03;;;3.83;;
211;SDS011;16228;48.800;9.002;2022-08-03T05:37:21;7.87;;;3.83;;
211;SDS011;16228;48.800;9.002;2022-08-03T05:39:48;6.80;;;4.10;;
211;SDS011;16228;48.800;9.002;2022-08-03T05:42:16;4.57;;;4.00;;
211;SDS011;16228;48.800;9.002;2022-08-03T05:44:43;7.57;;;3.70;;
211;SDS011;16228;48.800;9.002;2022-08-03T05:47:10;5.77;;;3.97;;
211;SDS011;16228;48.800;9.002;2022-08-03T05:49:37;4.10;;;3.23;;
211;SDS011;16228;48.800;9.002;2022-08-03T05:52:04;5.93;;;3.40;;
211;SDS011;16228;48.800;9.002;2022-08-03T05:54:31;3.67;;;3.33;;
211;SDS011;16228;48.800;9.002;2022-08-03T05:56:58;4.00;;;3.70;;
211;SDS011;16228;48.800;9.002;2022-08-03T05:59:26;3.60;;;3.30;;
211;SDS011;16228;48.800;9.002;2022-08-03T06:01:53;5.07;;;3.63;;
211;SDS011;16228;48.800;9.002;2022-08-03T06:04:20;4.67;;;3.37;;
211;SDS011;16228;48.800;9.002;2022-08-03T06:06:47;7.23;;;4.00;;
211;SDS011;16228;48.800;9.002;2022-08-03T06:09:15;5.30;;;3.70;;
211;SDS011;16228;48.800;9.002;2022-08-03T06:11:42;3.50;;;3.20;;
211;SDS011;16228;48.800;9.002;2022-08-03T06:14:09;4.43;;;3.40;;
211;SDS011;16228;48.800;9.002;2022-08-03T06:16:38;3.57;;;3.20;;
211;SDS011;16228;48.800;9.002;2022-08-03T06:19:05;3.60;;;3.30;;
211;SDS011;16228;48.800;9.002;2022-08-03T06:21:32;3.17;;;2.77;;
211;SDS011;16228;48.800;9.002;2022-08-03T06:23:59;3.63;;;3.33;;
211;SDS011;16228;48.800;9.002;2022-08-03T06:26:26;4.53;;;3.13;;
211;SDS011;16228;48.800;9.002;2022-08-03T06:28:53;4.57;;;3.20;;
211;SDS011;16228;48.800;9.002;2022-08-03T06:31:21;2.97;;;2.77;;
211;SDS011;16228;48.800;9.002;2022-08-03T06:33:51;3.77;;;2.97;;
211;SDS011;16228;48.800;9.002;2022-08-03T06:36:18;2.93;;;2.70;;
211;SDS011;16228;48.800;9.002;2022-08-03T06:38:45;3.73;;;3.43;;
211;SDS011;16228;48.800;9.002;2022-08-03T06:41:12;3.03;;;2.73;;
211;SDS011;16228;48.800;9.002;2022-08-03T06:43:39;3.40;;;2.80;;
211;SDS011;16228;48.800;9.002;2022-08-03T06:46:06;3.33;;;2.97;;
211;SDS011;16228;48.800;9.002;2022-08-03T06:48:35;5.37;;;2.67;;
211;SDS011;16228;48.800;9.002;2022-08-03T06:51:03;3.30;;;3.00;;
211;SDS011;16228;48.800;9.002;2022-08-03T06:53:30;3.30;;;2.67;;
211;SDS011;16228;48.800;9.002;2022-08-03T06:55:57;2.50;;;2.30;;
211;SDS011;16228;48.800;9.002;2022-08-03T06:58:24;3.93;;;2.87;;
211;SDS011;16228;48.800;9.002;2022-08-03T07:00:51;5.53;;;2.80;;
211;SDS011;16228;48.800;9.002;2022-08-03T07:03:18;2.80;;;2.50;;
211;SDS011;16228;48.800;9.002;2022-08-03T07:05:45;3.93;;;2.27;;
211;SDS011;16228;48.800;9.002;2022-08-03T07:08:13;3.07;;;2.23;;
211;SDS011;16228;48.800;9.002;2022-08-03T07:10:41;4.03;;;2.50;;
211;SDS011;16228;48.800;9.002;2022-08-03T07:13:08;2.50;;;2.30;;
211;SDS011;16228;48.800;9.002;2022-08-03T07:15:35;3.13;;;2.13;;
211;SDS011;16228;48.800;9.002;2022-08-03T07:18:02;2.50;;;1.95;;
211;SDS011;16228;48.800;9.002;2022-08-03T07:20:29;2.72;;;1.85;;
211;SDS011;16228;48.800;9.002;2022-08-03T07:22:56;2.75;;;2.13;;
211;SDS011;16228;48.800;9.002;2022-08-03T07:25:25;2.30;;;2.03;;
211;SDS011;16228;48.800;9.002;2022-08-03T07:27:51;3.45;;;2.20;;
211;SDS011;16228;48.800;9.002;2022-08-03T07:30:18;2.40;;;2.20;;
211;SDS011;16228;48.800;9.002;2022-08-03T07:32:45;3.13;;;2.05;;
211;SDS011;16228;48.800;9.002;2022-08-03T07:35:12;2.00;;;1.80;;
211;SDS011;16228;48.800;9.002;2022-08-03T07:37:40;5.13;;;1.90;;
211;SDS011;16228;48.800;9.002;2022-08-03T07:40:07;1.90;;;1.80;;
211;SDS011;16228;48.800;9.002;2022-08-03T07:42:35;1.70;;;1.60;;
211;SDS011;16228;48.800;9.002;2022-08-03T07:45:02;2.60;;;1.88;;
211;SDS011;16228;48.800;9.002;2022-08-03T07:47:30;4.20;;;1.80;;
211;SDS011;16228;48.800;9.002;2022-08-03T07:49:57;3.13;;;1.50;;
211;SDS011;16228;48.800;9.002;2022-08-03T07:52:24;2.17;;;1.67;;
211;SDS011;16228;48.800;9.002;2022-08-03T07:55:10;2.15;;;1.77;;
211;SDS011;16228;48.800;9.002;2022-08-03T07:57:39;1.60;;;1.50;;
211;SDS011;16228;48.800;9.002;2022-08-03T08:00:07;1.23;;;1.13;;
211;SDS011;16228;48.800;9.002;2022-08-03T08:02:38;1.45;;;1.33;;
211;SDS011;16228;48.800;9.002;2022-08-03T08:05:05;1.50;;;1.40;;
211;SDS011;16228;48.800;9.002;2022-08-03T08:07:34;2.40;;;1.45;;
211;SDS011;16228;48.800;9.002;2022-08-03T08:10:02;1.88;;;1.40;;
211;SDS011;16228;48.800;9.002;2022-08-03T08:12:29;1.45;;;1.20;;
211;SDS011;16228;48.800;9.002;2022-08-03T08:14:58;1.42;;;1.30;;
211;SDS011;16228;48.800;9.002;2022-08-03T08:17:25;3.05;;;1.30;;
211;SDS011;16228;48.800;9.002;2022-08-03T08:19:52;1.30;;;1.20;;
211;SDS011;16228;48.800;9.002;2022-08-03T08:22:19;1.23;;;1.13;;
211;SDS011;16228;48.800;9.002;2022-08-03T08:24:47;2.60;;;1.15;;
211;SDS011;16228;48.800;9.002;2022-08-03T08:27:14;1.00;;;1.00;;
211;SDS011;16228;48.800;9.002;2022-08-03T08:29:41;2.72;;;1.38;;
211;SDS011;16228;48.800;9.002;2022-08-03T08:32:09;4.03;;;1.30;;
211;SDS011;16228;48.800;9.002;2022-08-03T08:34:38;1.38;;;1.20;;
211;SDS011;16228;48.800;9.002;2022-08-03T08:37:05;1.25;;;1.15;;
211;SDS011;16228;48.800;9.002;2022-08-03T08:39:32;2.63;;;1.20;;
211;SDS011;16228;48.800;9.002;2022-08-03T08:41:59;2.28;;;1.15;;
211;SDS011;16228;48.800;9.002;2022-08-03T08:44:27;2.58;;;1.00;;
211;SDS011;16228;48.800;9.002;2022-08-03T08:46:55;1.20;;;1.10;;
211;SDS011;16228;48.800;9.002;2022-08-03T08:49:28;2.10;;;1.10;;
211;SDS011;16228;48.800;9.002;2022-08-03T08:51:57;2.15;;;1.00;;
211;SDS011;16228;48.800;9.002;2022-08-03T08:54:26;1.10;;;1.00;;
211;SDS011;16228;48.800;9.002;2022-08-03T08:56:54;0.88;;;0.88;;
211;SDS011;16228;48.800;9.002;2022-08-03T08:59:24;1.92;;;0.80;;
211;SDS011;16228;48.800;9.002;2022-08-03T09:01:55;1.30;;;1.20;;
211;SDS011;16228;48.800;9.002;2022-08-03T09:04:22;0.95;;;0.88;;
211;SDS011;16228;48.800;9.002;2022-08-03T09:06:52;1.00;;;1.00;;
211;SDS011;16228;48.800;9.002;2022-08-03T09:09:19;1.65;;;0.93;;
211;SDS011;16228;48.800;9.002;2022-08-03T09:11:46;1.10;;;0.90;;
211;SDS011;16228;48.800;9.002;2022-08-03T09:14:14;0.93;;;0.80;;
211;SDS011;16228;48.800;9.002;2022-08-03T09:16:54;1.17;;;1.08;;
211;SDS011;16228;48.800;9.002;2022-08-03T09:19:22;1.30;;;0.93;;
211;SDS011;16228;48.800;9.002;2022-08-03T09:21:54;1.05;;;0.88;;
211;SDS011;16228;48.800;9.002;2022-08-03T09:24:33;1.08;;;0.80;;
211;SDS011;16228;48.800;9.002;2022-08-03T09:27:01;1.85;;;0.80;;
211;SDS011;16228;48.800;9.002;2022-08-03T09:29:31;0.95;;;0.90;;
211;SDS011;16228;48.800;9.002;2022-08-03T09:31:59;0.80;;;0.80;;
211;SDS011;16228;48.800;9.002;2022-08-03T09:34:27;0.80;;;0.80;;
211;SDS011;16228;48.800;9.002;2022-08-03T09:36:56;1.08;;;0.98;;
211;SDS011;16228;48.800;9.002;2022-08-03T09:39:24;0.98;;;0.85;;
211;SDS011;16228;48.800;9.002;2022-08-03T09:42:04;1.00;;;1.00;;
211;SDS011;16228;48.800;9.002;2022-08-03T09:44:33;0.90;;;0.90;;
211;SDS011;16228;48.800;9.002;2022-08-03T09:47:01;1.65;;;1.00;;
211;SDS011;16228;48.800;9.002;2022-08-03T09:49:28;1.40;;;1.10;;
211;SDS011;16228;48.800;9.002;2022-08-03T09:51:57;1.52;;;1.10;;
211;SDS011;16228;48.800;9.002;2022-08-03T09:54:27;1.67;;;1.10;;
211;SDS011;16228;48.800;9.002;2022-08-03T09:56:56;0.85;;;0.85;;
211;SDS011;16228;48.800;9.002;2022-08-03T09:59:24;1.00;;;1.00;;
211;SDS011;16228;48.800;9.002;2022-08-03T10:01:52;1.08;;;0.90;;
211;SDS011;16228;48.800;9.002;2022-08-03T10:04:20;2.58;;;1.30;;
211;SDS011;16228;48.800;9.002;2022-08-03T10:07:02;1.10;;;1.00;;
211;SDS011;16228;48.800;9.002;2022-08-03T10:09:31;1.10;;;1.00;;
211;SDS011;16228;48.800;9.002;2022-08-03T10:12:05;3.35;;;1.38;;
211;SDS011;16228;48.800;9.002;2022-08-03T10:14:35;0.93;;;0.93;;
211;SDS011;16228;48.800;9.002;2022-08-03T10:17:03;1.05;;;1.05;;
211;SDS011;16228;48.800;9.002;2022-08-03T10:19:31;1.10;;;1.00;;
211;SDS011;16228;48.800;9.002;2022-08-03T10:22:00;1.58;;;1.20;;
211;SDS011;16228;48.800;9.002;2022-08-03T10:24:33;1.45;;;1.10;;
211;SDS011;16228;48.800;9.002;2022-08-03T10:27:02;1.70;;;0.90;;
211;SDS011;16228;48.800;9.002;2022-08-03T10:29:33;0.90;;;0.90;;
211;SDS011;16228;48.800;9.002;2022-08-03T10:32:03;1.85;;;1.00;;
211;SDS011;16228;48.800;9.002;2022-08-03T10:34:36;1.33;;;0.90;;
211;SDS011;16228;48.800;9.002;2022-08-03T10:37:10;2.05;;;1.23;;
211;SDS011;16228;48.800;9.002;2022-08-03T10:39:38;1.25;;;1.15;;
211;SDS011;16228;48.800;9.002;2022-08-03T10:42:18;3.75;;;1.15;;
211;SDS011;16228;48.800;9.002;2022-08-03T10:44:46;1.00;;;1.00;;
211;SDS011;16228;48.800;9.002;2022-08-03T10:47:18;1.40;;;1.30;;
211;SDS011;16228;48.800;9.002;2022-08-03T10:49:46;1.10;;;1.00;;
211;SDS011;16228;48.800;9.002;2022-08-03T10:52:15;1.17;;;1.17;;
211;SDS011;16228;48.800;9.002;2022-08-03T10:54:43;1.40;;;1.23;;
211;SDS011;16228;48.800;9.002;2022-08-03T10:57:41;4.85;;;1.45;;
211;SDS011;16228;48.800;9.002;2022-08-03T11:00:12;1.05;;;1.05;;
211;SDS011;16228;48.800;9.002;2022-08-03T11:05:31;1.33;;;1.20;;
211;SDS011;16228;48.800;9.002;2022-08-03T11:10:53;1.02;;;1.02;;
211;SDS011;16228;48.800;9.002;2022-08-03T11:13:22;1.25;;;1.17;;
211;SDS011;16228;48.800;9.002;2022-08-03T11:15:53;1.00;;;0.98;;
211;SDS011;16228;48.800;9.002;2022-08-03T11:18:22;4.30;;;1.40;;
211;SDS011;16228;48.800;9.002;2022-08-03T11:20:50;1.13;;;1.02;;
211;SDS011;16228;48.800;9.002;2022-08-03T11:23:19;2.05;;;1.20;;
211;SDS011;16228;48.800;9.002;2022-08-03T11:26:14;1.05;;;0.95;;
211;SDS011;16228;48.800;9.002;2022-08-03T11:28:42;1.15;;;1.05;;
211;SDS011;16228;48.800;9.002;2022-08-03T11:34:12;1.30;;;1.13;;
211;SDS011;16228;48.800;9.002;2022-08-03T11:39:49;1.25;;;1.15;;
211;SDS011;16228;48.800;9.002;2022-08-03T11:42:41;1.35;;;1.25;;
211;SDS011;16228;48.800;9.002;2022-08-03T11:45:11;1.00;;;1.00;;
211;SDS011;16228;48.800;9.002;2022-08-03T11:47:39;1.42;;;1.10;;
211;SDS011;16228;48.800;9.002;2022-08-03T11:50:08;1.10;;;1.00;;
211;SDS011;16228;48.800;9.002;2022-08-03T11:52:37;1.20;;;1.05;;
211;SDS011;16228;48.800;9.002;2022-08-03T11:55:09;1.45;;;1.02;;
211;SDS011;16228;48.800;9.002;2022-08-03T11:57:38;1.42;;;1.20;;
211;SDS011;16228;48.800;9.002;2022-08-03T12:02:54;1.15;;;1.10;;
211;SDS011;16228;48.800;9.002;2022-08-03T12:05:31;1.23;;;1.00;;
211;SDS011;16228;48.800;9.002;2022-08-03T12:08:02;1.60;;;1.05;;
211;SDS011;16228;48.800;9.002;2022-08-03T12:10:30;3.17;;;1.50;;
211;SDS011;16228;48.800;9.002;2022-08-03T12:12:57;1.55;;;1.30;;
211;SDS011;16228;48.800;9.002;2022-08-03T12:15:27;1.13;;;1.13;;
211;SDS011;16228;48.800;9.002;2022-08-03T12:17:58;1.40;;;1.30;;
211;SDS011;16228;48.800;9.002;2022-08-03T12:20:26;1.38;;;1.27;;
211;SDS011;16228;48.800;9.002;2022-08-03T12:23:00;1.15;;;1.15;;
211;SDS011;16228;48.800;9.002;2022-08-03T12:25:28;1.10;;;1.10;;
211;SDS011;16228;48.800;9.002;2022-08-03T12:28:04;1.50;;;1.40;;
211;SDS011;16228;48.800;9.002;2022-08-03T12:30:38;1.50;;;1.40;;
211;SDS011;16228;48.800;9.002;2022-08-03T12:33:11;0.95;;;0.95;;
211;SDS011;16228;48.800;9.002;2022-08-03T12:35:44;1.60;;;1.48;;
211;SDS011;16228;48.800;9.002;2022-08-03T12:38:12;2.03;;;1.40;;
211;SDS011;16228;48.800;9.002;2022-08-03T12:40:44;2.22;;;1.40;;
211;SDS011;16228;48.800;9.002;2022-08-03T12:43:20;1.48;;;0.90;;
211;SDS011;16228;48.800;9.002;2022-08-03T12:45:48;1.63;;;1.23;;
211;SDS011;16228;48.800;9.002;2022-08-03T12:48:15;1.35;;;1.23;;
211;SDS011;16228;48.800;9.002;2022-08-03T12:50:42;2.22;;;1.10;;
211;SDS011;16228;48.800;9.002;2022-08-03T12:53:09;2.20;;;0.82;;
211;SDS011;16228;48.800;9.002;2022-08-03T12:55:36;1.13;;;1.05;;
211;SDS011;16228;48.800;9.002;2022-08-03T12:58:04;1.80;;;1.27;;
211;SDS011;16228;48.800;9.002;2022-08-03T13:00:35;1.38;;;1.05;;
211;SDS011;16228;48.800;9.002;2022-08-03T13:03:04;0.95;;;0.95;;
211;SDS011;16228;48.800;9.002;2022-08-03T13:05:41;3.58;;;1.42;;
211;SDS011;16228;48.800;9.002;2022-08-03T13:08:16;2.50;;;1.10;;
211;SDS011;16228;48.800;9.002;2022-08-03T13:10:45;1.70;;;0.90;;
211;SDS011;16228;48.800;9.002;2022-08-03T13:13:12;1.30;;;1.20;;
211;SDS011;16228;48.800;9.002;2022-08-03T13:15:39;2.15;;;1.10;;
211;SDS011;16228;48.800;9.002;2022-08-03T13:18:08;2.22;;;1.02;;
211;SDS011;16228;48.800;9.002;2022-08-03T13:20:35;0.80;;;0.80;;
211;SDS011;16228;48.800;9.002;2022-08-03T13:23:02;1.10;;;1.00;;
211;SDS011;16228;48.800;9.002;2022-08-03T13:25:29;1.25;;;1.15;;
211;SDS011;16228;48.800;9.002;2022-08-03T13:27:56;1.30;;;1.20;;
211;SDS011;16228;48.800;9.002;2022-08-03T13:30:23;1.10;;;0.80;;
211;SDS011;16228;48.800;9.002;2022-08-03T13:32:50;3.80;;;1.52;;
211;SDS011;16228;48.800;9.002;2022-08-03T13:35:18;1.45;;;1.23;;
211;SDS011;16228;48.800;9.002;2022-08-03T13:37:45;1.10;;;1.00;;
211;SDS011;16228;48.800;9.002;2022-08-03T13:40:12;3.13;;;1.33;;
211;SDS011;16228;48.800;9.002;2022-08-03T13:42:39;1.38;;;1.23;;
211;SDS011;16228;48.800;9.002;2022-08-03T13:45:06;1.33;;;1.20;;
211;SDS011;16228;48.800;9.002;2022-08-03T13:47:35;2.13;;;1.30;;
211;SDS011;16228;48.800;9.002;2022-08-03T13:50:02;2.08;;;1.40;;
211;SDS011;16228;48.800;9.002;2022-08-03T13:52:32;4.93;;;1.33;;
211;SDS011;16228;48.800;9.002;2022-08-03T13:54:59;1.20;;;1.10;;
211;SDS011;16228;48.800;9.002;2022-08-03T13:57:27;1.00;;;1.00;;
211;SDS011;16228;48.800;9.002;2022-08-03T13:59:54;1.15;;;0.90;;
211;SDS011;16228;48.800;9.002;2022-08-03T14:02:21;1.92;;;1.23;;
211;SDS011;16228;48.800;9.002;2022-08-03T14:04:48;2.25;;;1.20;;
211;SDS011;16228;48.800;9.002;2022-08-03T14:07:15;1.92;;;1.10;;
211;SDS011;16228;48.800;9.002;2022-08-03T14:09:43;1.33;;;1.23;;
211;SDS011;16228;48.800;9.002;2022-08-03T14:12:10;2.42;;;1.50;;
211;SDS011;16228;48.800;9.002;2022-08-03T14:14:37;1.63;;;1.17;;
211;SDS011;16228;48.800;9.002;2022-08-03T14:17:04;1.80;;;1.70;;
211;SDS011;16228;48.800;9.002;2022-08-03T14:19:31;1.52;;;1.40;;
211;SDS011;16228;48.800;9.002;2022-08-03T14:21:58;1.13;;;1.02;;
211;SDS011;16228;48.800;9.002;2022-08-03T14:24:25;1.42;;;1.10;;
211;SDS011;16228;48.800;9.002;2022-08-03T14:26:53;3.35;;;1.38;;
211;SDS011;16228;48.800;9.002;2022-08-03T14:29:20;1.85;;;1.27;;
211;SDS011;16228;48.800;9.002;2022-08-03T14:31:47;2.65;;;1.58;;
211;SDS011;16228;48.800;9.002;2022-08-03T14:34:14;1.67;;;1.38;;
211;SDS011;16228;48.800;9.002;2022-08-03T14:36:41;1.40;;;1.30;;
211;SDS011;16228;48.800;9.002;2022-08-03T14:39:08;1.40;;;1.30;;
211;SDS011;16228;48.800;9.002;2022-08-03T14:41:35;1.35;;;1.25;;
211;SDS011;16228;48.800;9.002;2022-08-03T14:44:03;2.17;;;1.20;;
211;SDS011;16228;48.800;9.002;2022-08-03T14:46:31;1.50;;;1.40;;
211;SDS011;16228;48.800;9.002;2022-08-03T14:48:58;1.08;;;1.08;;
211;SDS011;16228;48.800;9.002;2022-08-03T14:51:25;1.83;;;1.08;;
211;SDS011;16228;48.800;9.002;2022-08-03T14:53:52;1.48;;;1.15;;
211;SDS011;16228;48.800;9.002;2022-08-03T14:56:19;1.40;;;1.30;;
211;SDS011;16228;48.800;9.002;2022-08-03T14:58:46;1.30;;;1.20;;
211;SDS011;16228;48.800;9.002;2022-08-03T15:01:14;1.80;;;1.40;;
211;SDS011;16228;48.800;9.002;2022-08-03T15:03:41;2.67;;;1.50;;
211;SDS011;16228;48.800;9.002;2022-08-03T15:06:10;1.55;;;1.45;;
211;SDS011;16228;48.800;9.002;2022-08-03T15:08:37;1.70;;;1.40;;
211;SDS011;16228;48.800;9.002;2022-08-03T15:11:05;1.33;;;1.23;;
211;SDS011;16228;48.800;9.002;2022-08-03T15:13:31;1.50;;;1.25;;
211;SDS011;16228;48.800;9.002;2022-08-03T15:15:58;1.40;;;1.30;;
211;SDS011;16228;48.800;9.002;2022-08-03T15:18:27;3.28;;;1.60;;
211;SDS011;16228;48.800;9.002;2022-08-03T15:20:54;2.45;;;1.70;;
211;SDS011;16228;48.800;9.002;2022-08-03T15:23:21;1.70;;;1.60;;
211;SDS011;16228;48.800;9.002;2022-08-03T15:25:48;1.60;;;1.50;;
211;SDS011;16228;48.800;9.002;2022-08-03T15:28:15;1.67;;;1.58;;
211;SDS011;16228;48.800;9.002;2022-08-03T15:30:42;1.90;;;1.60;;
211;SDS011;16228;48.800;9.002;2022-08-03T15:33:09;1.50;;;1.40;;
211;SDS011;16228;48.800;9.002;2022-08-03T15:35:38;3.77;;;1.60;;
211;SDS011;16228;48.800;9.002;2022-08-03T15:38:05;1.52;;;1.42;;
211;SDS011;16228;48.800;9.002;2022-08-03T15:40:32;2.17;;;1.60;;